NVSS

Details ICAO NVSS (SON)
Name Santo Pekoa Intl
Region Vanuatu
Timezone Pacific/Efate (UTC+11.0)
Plans Departing 6
Arriving 10
Stats Elevation 184 ft / 56 m (AMSL)
Location -15.504563° 167.219688°
Runways 1
Magnetic Variation 10.922° E
Sunrise 2017-12-12 18:15:31 UTC / 2017-12-13 05:15:31 Local
Sunset 2017-12-13 07:17:32 UTC / 2017-12-13 18:17:32 Local
Advertisement - Login to hide

Runways

ID Width Length Bearing (true) Bearing (mag) Surface Threshold Offset Overrun Length
12 98 ft / 30 m 6,569 ft / 2,002 m 129.30° 118.38° Asphalt 0 ft / 0 m 203 ft / 62 m
30 98 ft / 30 m 6,569 ft / 2,002 m 309.30° 298.38° Asphalt 0 ft / 0 m 194 ft / 59 m

Map

Weather


0- 5 10 15 20 25 30 35+ Temperature / ° C

Clouds and Precipitation
Forecast for 2017-12-13 00:00 UTC. Updated 21 minutes ago

Ground ~20,000 ft ~40,000 ft Winds

METAR

Not found

TAF

TAF NVSS 121630Z 1218/1318 VRB02KT 9999 BKN020 OVC110 PROB30 INTER 1218/1224 9000 -SHRA BKN018 OVC100 BECMG 1219/1221 08008KT

Frequencies

Unicom 118.10 MHz CTAF
Warning: Do not use this data for real-world aviation or navigation. No guarantee of current accuracy is given.